Time;durP1;ratioP1;P1;durP2;ratioP2;P2;SDS_P1;SDS_P2;PMS_P1;PMS_P2;Temp;Humidity;BMP_temperature;BMP_pressure;BME280_temperature;BME280_humidity;BME280_pressure;Samples;Min_cycle;Max_cycle;Signal;HPM_P1;HPM_P2
2024/01/23 00:02:27;;;;;;;21.40;11.90;;;;;;;-2.81;64.24;102242.62;107590;1251;108560;-64
2024/01/23 00:04:55;;;;;;;21.30;10.80;;;;;;;-2.80;64.63;102245.95;107550;1256;97824;-64
2024/01/23 00:07:24;;;;;;;17.70;10.10;;;;;;;-2.78;64.55;102242.43;107556;1251;97937;-66
2024/01/23 00:09:52;;;;;;;20.40;10.30;;;;;;;-2.76;64.59;102245.04;107618;1251;111987;-65
2024/01/23 00:12:20;;;;;;;22.30;10.70;;;;;;;-2.73;64.58;102246.77;107562;1251;108621;-65
2024/01/23 00:14:49;;;;;;;18.90;10.30;;;;;;;-2.72;64.64;102232.89;107579;1251;108420;-65
2024/01/23 00:17:17;;;;;;;16.70;9.40;;;;;;;-2.67;65.00;102224.77;107593;1251;97909;-64
2024/01/23 00:19:53;;;;;;;19.90;9.40;;;;;;;-2.58;64.82;102214.48;107616;1251;100173;-65
2024/01/23 00:22:22;;;;;;;18.00;10.60;;;;;;;-2.53;64.61;102215.13;107608;1257;111302;-64
2024/01/23 00:24:51;;;;;;;20.00;10.50;;;;;;;-2.53;64.45;102210.56;107587;1251;107480;-64
2024/01/23 00:27:19;;;;;;;24.20;10.90;;;;;;;-2.54;64.36;102201.96;107595;1256;108594;-64
2024/01/23 00:29:48;;;;;;;19.30;10.20;;;;;;;-2.57;63.93;102193.92;107582;1251;97818;-65
2024/01/23 00:32:16;;;;;;;25.50;11.60;;;;;;;-2.62;64.17;102189.75;107616;1254;98445;-64
2024/01/23 00:34:44;;;;;;;22.30;11.00;;;;;;;-2.72;64.05;102185.99;107624;1251;112231;-65
2024/01/23 00:37:12;;;;;;;23.80;11.40;;;;;;;-2.80;63.97;102186.95;107634;1251;108488;-65
2024/01/23 00:39:40;;;;;;;24.50;12.30;;;;;;;-2.85;63.75;102183.14;107606;1256;108016;-64
2024/01/23 00:42:09;;;;;;;27.50;13.60;;;;;;;-2.89;63.58;102168.80;107568;1254;97853;-65
2024/01/23 00:44:38;;;;;;;19.40;9.80;;;;;;;-2.94;63.91;102158.65;107612;1251;97732;-65
2024/01/23 00:47:06;;;;;;;19.30;10.50;;;;;;;-3.00;63.92;102148.52;107606;1251;112448;-65
2024/01/23 00:49:34;;;;;;;19.20;11.20;;;;;;;-3.04;63.79;102152.27;107568;1252;108340;-65
2024/01/23 00:52:03;;;;;;;18.00;9.40;;;;;;;-3.08;63.95;102155.27;107545;1251;108218;-65
2024/01/23 00:54:31;;;;;;;18.40;10.20;;;;;;;-3.12;63.88;102156.36;107563;1251;97905;-65
2024/01/23 00:57:00;;;;;;;19.00;10.10;;;;;;;-3.15;63.90;102152.71;107613;1251;97739;-65
2024/01/23 00:59:28;;;;;;;16.40;10.20;;;;;;;-3.18;63.80;102140.45;107605;1251;110722;-64
2024/01/23 01:01:56;;;;;;;17.70;10.10;;;;;;;-3.21;63.95;102142.75;107499;1254;107878;-66
2024/01/23 01:04:25;;;;;;;21.00;10.30;;;;;;;-3.23;63.98;102140.85;107473;1251;108316;-65
2024/01/23 01:06:53;;;;;;;17.20;9.20;;;;;;;-3.22;64.25;102139.95;107490;1251;97842;-66
2024/01/23 01:09:22;;;;;;;17.60;10.70;;;;;;;-3.18;64.43;102143.08;107501;1251;97801;-64
2024/01/23 01:11:51;;;;;;;20.80;10.30;;;;;;;-3.17;64.31;102148.33;107489;1252;111737;-63
2024/01/23 01:14:19;;;;;;;21.30;11.50;;;;;;;-3.17;64.33;102137.80;107504;1251;108496;-64
2024/01/23 01:16:48;;;;;;;20.00;10.40;;;;;;;-3.18;64.33;102132.19;107478;1254;108729;-64
2024/01/23 01:19:16;;;;;;;15.60;9.20;;;;;;;-3.16;64.49;102123.05;107481;1251;97903;-64
2024/01/23 01:21:45;;;;;;;17.70;9.50;;;;;;;-3.11;64.77;102110.73;107502;1251;97838;-64
2024/01/23 01:24:13;;;;;;;20.70;10.80;;;;;;;-3.06;64.63;102107.86;107496;1251;111424;-64
2024/01/23 01:26:41;;;;;;;27.00;9.10;;;;;;;-3.00;64.74;102105.33;107511;1254;108426;-64
2024/01/23 01:29:10;;;;;;;31.00;11.90;;;;;;;-2.94;64.72;102100.89;107394;1251;109445;-64
2024/01/23 01:31:38;;;;;;;15.20;9.00;;;;;;;-2.90;64.59;102102.95;107428;1251;97860;-64
2024/01/23 01:34:06;;;;;;;23.20;11.70;;;;;;;-2.85;64.67;102100.63;107528;1251;98405;-64
2024/01/23 01:36:35;;;;;;;19.50;9.50;;;;;;;-2.83;64.51;102098.66;107455;1254;111931;-64
2024/01/23 01:39:03;;;;;;;19.60;10.60;;;;;;;-2.82;64.47;102102.52;107477;1251;108332;-64
2024/01/23 01:41:32;;;;;;;22.90;10.90;;;;;;;-2.79;64.50;102099.67;107501;1250;107165;-64
2024/01/23 01:44:00;;;;;;;28.40;12.40;;;;;;;-2.79;64.09;102099.33;107593;1254;98158;-65
2024/01/23 01:46:28;;;;;;;22.50;11.10;;;;;;;-2.78;64.17;102095.61;107605;1254;97714;-65
2024/01/23 01:48:57;;;;;;;22.70;11.20;;;;;;;-2.79;63.63;102097.92;107624;1254;112114;-65
2024/01/23 01:51:29;;;;;;;19.00;10.50;;;;;;;-2.78;64.03;102095.96;107637;1257;106837;-65
2024/01/23 01:53:58;;;;;;;21.10;10.50;;;;;;;-2.77;63.87;102091.56;107599;1255;106358;-65
2024/01/23 01:56:29;;;;;;;22.90;12.40;;;;;;;-2.78;63.68;102090.19;107634;1255;97829;-64
2024/01/23 01:58:58;;;;;;;24.80;12.10;;;;;;;-2.81;63.43;102085.48;107656;1253;97903;-65
2024/01/23 02:01:27;;;;;;;25.70;11.00;;;;;;;-2.84;63.54;102084.11;107725;1255;110263;-66
2024/01/23 02:03:55;;;;;;;23.20;11.70;;;;;;;-2.87;63.44;102081.68;107618;1254;107419;-65
2024/01/23 02:06:24;;;;;;;22.50;12.60;;;;;;;-2.89;63.36;102081.88;107638;1254;109101;-64
2024/01/23 02:08:54;;;;;;;24.50;11.40;;;;;;;-2.92;63.33;102075.77;107692;1254;97861;-64
2024/01/23 02:11:23;;;;;;;23.40;9.80;;;;;;;-2.97;63.25;102069.86;107725;1254;97748;-65
2024/01/23 02:13:52;;;;;;;20.40;9.40;;;;;;;-3.01;63.27;102075.86;107624;1253;112422;-63
2024/01/23 02:16:21;;;;;;;15.80;8.70;;;;;;;-3.02;63.14;102073.61;107639;1254;108369;-64
2024/01/23 02:18:50;;;;;;;17.70;9.20;;;;;;;-3.04;63.30;102072.56;107632;1254;108343;-63
2024/01/23 02:21:18;;;;;;;16.70;9.40;;;;;;;-3.06;63.49;102077.15;107567;1254;97730;-64
2024/01/23 02:23:47;;;;;;;15.00;8.20;;;;;;;-3.07;63.03;102081.02;107664;1254;97828;-64
2024/01/23 02:26:15;;;;;;;16.10;8.70;;;;;;;-3.04;62.68;102085.21;107668;1253;110507;-64
2024/01/23 02:28:44;;;;;;;18.30;9.60;;;;;;;-3.04;62.81;102079.76;107650;1254;108342;-64
2024/01/23 02:31:12;;;;;;;15.70;9.50;;;;;;;-3.05;62.75;102076.45;107583;1251;107902;-63
2024/01/23 02:33:40;;;;;;;15.90;8.40;;;;;;;-3.08;62.60;102080.16;107535;1253;98040;-65
2024/01/23 02:36:09;;;;;;;14.30;7.70;;;;;;;-3.09;62.61;102069.99;107584;1254;98781;-66
2024/01/23 02:38:37;;;;;;;15.70;8.40;;;;;;;-3.08;63.25;102078.75;107502;1254;112090;-64
2024/01/23 02:41:06;;;;;;;19.80;8.90;;;;;;;-3.07;62.79;102079.27;107507;1254;108465;-64
2024/01/23 02:43:36;;;;;;;14.30;7.80;;;;;;;-3.02;62.78;102074.66;107611;1254;108129;-65
2024/01/23 02:46:04;;;;;;;15.70;8.40;;;;;;;-3.01;62.49;102074.10;107607;1253;97813;-65
2024/01/23 02:48:33;;;;;;;17.50;8.70;;;;;;;-3.01;62.25;102070.94;107652;1254;97726;-64
2024/01/23 02:51:02;;;;;;;15.10;8.90;;;;;;;-3.02;62.45;102063.77;107483;1254;112209;-64
2024/01/23 02:53:30;;;;;;;17.40;8.50;;;;;;;-3.03;62.18;102060.62;107617;1256;107413;-63
2024/01/23 02:55:58;;;;;;;17.50;9.40;;;;;;;-3.03;61.99;102051.67;107661;1254;108037;-63
2024/01/23 02:58:27;;;;;;;15.20;9.30;;;;;;;-3.02;61.89;102052.36;107580;1254;97938;-64
2024/01/23 03:00:55;;;;;;;14.10;8.30;;;;;;;-3.02;62.12;102049.02;107611;1253;98337;-64
2024/01/23 03:03:23;;;;;;;11.80;7.60;;;;;;;-3.03;62.16;102046.23;107638;1256;111310;-64
2024/01/23 03:05:52;;;;;;;13.90;7.90;;;;;;;-3.03;61.92;102043.95;107650;1254;108746;-65
2024/01/23 03:08:22;;;;;;;11.20;7.30;;;;;;;-3.03;61.91;102042.36;107593;1253;108632;-64
2024/01/23 03:10:51;;;;;;;14.70;7.40;;;;;;;-3.04;62.01;102045.19;107641;1253;97823;-63
2024/01/23 03:13:19;;;;;;;11.70;7.20;;;;;;;-3.04;61.86;102039.56;107626;1254;98257;-63
2024/01/23 03:15:49;;;;;;;16.30;8.10;;;;;;;-3.03;62.15;102036.40;107636;1254;111702;-65
2024/01/23 03:18:18;;;;;;;15.20;7.90;;;;;;;-3.04;61.99;102028.34;107705;1254;108360;-64
2024/01/23 03:20:47;;;;;;;16.50;8.10;;;;;;;-3.05;62.06;102031.86;107566;1254;107682;-65
2024/01/23 03:23:15;;;;;;;12.90;7.80;;;;;;;-3.08;62.44;102034.69;107588;1253;97928;-65
2024/01/23 03:25:44;;;;;;;16.40;8.60;;;;;;;-3.08;62.38;102027.14;107624;1256;97765;-65
2024/01/23 03:28:12;;;;;;;16.50;9.20;;;;;;;-3.05;62.77;102027.12;107608;1256;111684;-65
2024/01/23 03:30:41;;;;;;;17.00;8.80;;;;;;;-3.05;62.50;102020.09;107628;1254;108364;-65
2024/01/23 03:33:10;;;;;;;16.20;9.20;;;;;;;-3.09;62.37;102019.98;107516;1251;108471;-65
2024/01/23 03:35:38;;;;;;;20.10;10.20;;;;;;;-3.13;62.29;102024.05;107490;1254;97927;-63
2024/01/23 03:38:07;;;;;;;17.00;8.80;;;;;;;-3.16;62.39;102019.87;107578;1251;97833;-66
2024/01/23 03:40:38;;;;;;;17.60;8.70;;;;;;;-3.22;62.44;102012.39;107633;1251;111851;-65
2024/01/23 03:43:06;;;;;;;15.50;8.20;;;;;;;-3.27;62.41;102012.61;107534;1251;108928;-64
2024/01/23 03:45:35;;;;;;;19.30;8.80;;;;;;;-3.29;62.63;102013.35;107578;1251;107851;-65
2024/01/23 03:48:04;;;;;;;19.30;9.80;;;;;;;-3.31;62.56;102017.21;107588;1251;97816;-65
2024/01/23 03:50:33;;;;;;;16.40;9.80;;;;;;;-3.34;62.84;102018.30;107609;1251;97862;-65
2024/01/23 03:53:02;;;;;;;16.50;9.00;;;;;;;-3.37;62.52;102017.46;107612;1250;111826;-64
2024/01/23 03:55:30;;;;;;;17.70;9.40;;;;;;;-3.38;62.71;102011.17;107578;1251;108343;-64
2024/01/23 03:57:58;;;;;;;20.60;9.00;;;;;;;-3.39;62.68;102014.15;107591;1251;108138;-65
2024/01/23 04:00:28;;;;;;;17.10;8.90;;;;;;;-3.40;62.89;102014.17;107605;1251;97860;-63
2024/01/23 04:02:57;;;;;;;15.00;8.00;;;;;;;-3.41;63.09;102014.87;107608;1251;98400;-66
2024/01/23 04:05:25;;;;;;;16.20;9.50;;;;;;;-3.42;63.19;102021.73;107651;1256;112010;-64
2024/01/23 04:07:54;;;;;;;18.60;10.60;;;;;;;-3.46;62.91;102018.27;107576;1251;108350;-64
2024/01/23 04:10:22;;;;;;;19.80;10.70;;;;;;;-3.51;63.07;102021.46;107588;1251;107579;-64
2024/01/23 04:12:50;;;;;;;18.20;10.30;;;;;;;-3.56;63.38;102015.90;107585;1254;97956;-65
2024/01/23 04:15:19;;;;;;;18.40;10.10;;;;;;;-3.57;63.33;102014.86;107571;1251;97834;-64
2024/01/23 04:17:47;;;;;;;17.30;10.10;;;;;;;-3.54;63.62;102012.90;107610;1251;111416;-65
2024/01/23 04:20:16;;;;;;;24.60;9.80;;;;;;;-3.47;63.83;102005.98;107575;1251;108123;-64
2024/01/23 04:22:45;;;;;;;16.00;9.10;;;;;;;-3.44;64.10;102005.77;107656;1254;107631;-63
2024/01/23 04:25:13;;;;;;;15.30;7.80;;;;;;;-3.40;64.28;102000.65;107592;1251;97021;-66
2024/01/23 04:27:41;;;;;;;15.40;8.20;;;;;;;-3.31;63.85;101993.19;107570;1251;97829;-65
2024/01/23 04:30:11;;;;;;;15.60;8.40;;;;;;;-3.24;63.79;101993.29;107598;1254;111911;-64
2024/01/23 04:32:41;;;;;;;22.70;10.70;;;;;;;-3.19;63.52;101994.81;107663;1254;107327;-63
2024/01/23 04:35:10;;;;;;;19.20;8.90;;;;;;;-3.19;63.64;101994.64;107533;1254;107714;-64
2024/01/23 04:37:38;;;;;;;17.10;9.60;;;;;;;-3.24;63.87;101988.02;107563;1251;97838;-64
2024/01/23 04:40:09;;;;;;;15.60;9.40;;;;;;;-3.28;63.91;101987.02;107577;1250;97777;-64
2024/01/23 04:42:37;;;;;;;16.60;9.70;;;;;;;-3.34;64.37;101988.32;107589;1251;111215;-64
2024/01/23 04:45:08;;;;;;;16.80;9.40;;;;;;;-3.39;64.34;101985.55;107568;1251;108571;-64
2024/01/23 04:47:37;;;;;;;18.90;9.80;;;;;;;-3.44;64.38;101989.12;107599;1251;107434;-64
2024/01/23 04:50:06;;;;;;;18.10;10.20;;;;;;;-3.45;64.44;101995.45;107621;1251;97747;-64
2024/01/23 04:52:35;;;;;;;14.90;8.70;;;;;;;-3.45;64.52;101998.09;107578;1251;98527;-64
2024/01/23 04:55:04;;;;;;;20.10;10.90;;;;;;;-3.43;64.84;101996.64;107603;1251;110064;-65
2024/01/23 04:57:32;;;;;;;17.00;9.70;;;;;;;-3.41;64.75;102001.02;107661;1256;106787;-64
2024/01/23 05:00:04;;;;;;;19.20;10.00;;;;;;;-3.40;64.64;101996.09;107616;1251;107517;-66
2024/01/23 05:02:33;;;;;;;18.30;9.80;;;;;;;-3.38;64.60;101999.23;107544;1254;97972;-64
2024/01/23 05:05:01;;;;;;;28.70;15.70;;;;;;;-3.33;64.80;102011.81;107641;1251;98075;-64
2024/01/23 05:07:30;;;;;;;21.90;11.10;;;;;;;-3.32;64.83;102011.61;107655;1254;111898;-65
2024/01/23 05:09:58;;;;;;;20.30;11.40;;;;;;;-3.32;64.90;102012.49;107652;1251;107251;-66
2024/01/23 05:12:26;;;;;;;19.30;10.20;;;;;;;-3.33;64.60;102008.66;107577;1251;107138;-65
2024/01/23 05:14:54;;;;;;;19.20;10.90;;;;;;;-3.35;64.53;102005.68;107559;1250;97841;-65
2024/01/23 05:17:22;;;;;;;23.40;11.70;;;;;;;-3.38;64.30;102005.71;107587;1250;97850;-64
2024/01/23 05:19:51;;;;;;;21.40;11.80;;;;;;;-3.46;64.34;101996.33;107574;1251;111354;-64
2024/01/23 05:22:19;;;;;;;23.40;11.50;;;;;;;-3.54;64.14;101995.02;107611;1251;108357;-65
2024/01/23 05:24:48;;;;;;;23.00;12.80;;;;;;;-3.61;64.05;102002.96;107556;1251;107697;-65
2024/01/23 05:27:16;;;;;;;23.30;12.60;;;;;;;-3.68;64.13;102003.73;107539;1251;97877;-64
2024/01/23 05:29:47;;;;;;;32.50;12.60;;;;;;;-3.74;64.39;101998.20;107585;1251;98439;-66
2024/01/23 05:32:18;;;;;;;31.80;13.30;;;;;;;-3.82;64.30;102005.44;107610;1251;111478;-64
2024/01/23 05:34:47;;;;;;;29.30;13.80;;;;;;;-3.89;64.11;101999.02;107591;1251;108341;-66
2024/01/23 05:37:15;;;;;;;30.80;14.10;;;;;;;-3.96;64.32;102002.23;107556;1251;108348;-65
2024/01/23 05:39:44;;;;;;;25.00;13.00;;;;;;;-4.06;65.40;101998.98;107508;1250;97943;-65
2024/01/23 05:42:12;;;;;;;23.60;11.90;;;;;;;-4.14;65.37;102011.83;107588;1251;97688;-65
2024/01/23 05:44:40;;;;;;;25.80;12.20;;;;;;;-4.18;64.87;102012.39;107585;1254;111736;-67
2024/01/23 05:47:12;;;;;;;23.20;12.30;;;;;;;-4.20;64.97;102015.90;107507;1251;109076;-64
2024/01/23 05:49:41;;;;;;;22.80;11.40;;;;;;;-4.19;65.02;102019.39;107509;1251;108356;-63
2024/01/23 05:52:09;;;;;;;26.30;13.30;;;;;;;-4.20;65.11;102024.32;107490;1251;97833;-64
2024/01/23 05:54:41;;;;;;;26.50;12.60;;;;;;;-4.21;64.96;102022.05;107516;1251;98327;-66
2024/01/23 05:57:10;;;;;;;27.10;12.90;;;;;;;-4.24;65.08;102025.55;107498;1251;111595;-64
2024/01/23 05:59:40;;;;;;;22.90;11.60;;;;;;;-4.22;65.26;102022.04;107519;1251;108433;-64
2024/01/23 06:02:09;;;;;;;22.10;10.10;;;;;;;-4.13;65.57;102023.91;107489;1251;107408;-65
2024/01/23 06:04:37;;;;;;;25.80;13.00;;;;;;;-4.10;65.48;102030.36;107575;1251;98017;-64
2024/01/23 06:07:06;;;;;;;24.00;12.60;;;;;;;-4.08;65.32;102035.27;107549;1251;97909;-65
2024/01/23 06:09:34;;;;;;;23.00;11.90;;;;;;;-4.06;65.38;102035.08;107514;1250;111841;-65
2024/01/23 06:12:04;;;;;;;28.00;16.30;;;;;;;-4.07;65.58;102035.09;107479;1250;108487;-65
2024/01/23 06:14:32;;;;;;;24.40;14.10;;;;;;;-4.07;65.73;102029.98;107560;1251;107165;-63
2024/01/23 06:17:00;;;;;;;31.40;13.50;;;;;;;-4.08;65.83;102029.48;107499;1251;97835;-64
2024/01/23 06:19:28;;;;;;;23.60;13.00;;;;;;;-4.05;65.90;102028.06;107538;1251;98458;-66
2024/01/23 06:21:57;;;;;;;26.00;11.60;;;;;;;-4.08;66.06;102032.46;107503;1251;111997;-64
2024/01/23 06:24:25;;;;;;;23.50;11.60;;;;;;;-4.06;66.39;102037.88;107512;1251;108656;-65
2024/01/23 06:26:53;;;;;;;25.10;12.50;;;;;;;-4.00;66.25;102041.52;107484;1250;107060;-66
2024/01/23 06:29:22;;;;;;;24.90;12.10;;;;;;;-3.92;66.08;102035.33;107482;1250;97937;-65
2024/01/23 06:31:51;;;;;;;25.20;12.50;;;;;;;-3.85;66.11;102032.98;107507;1250;97837;-64
2024/01/23 06:34:21;;;;;;;22.40;13.30;;;;;;;-3.73;66.47;102028.69;107539;1254;111903;-65
2024/01/23 06:36:50;;;;;;;21.10;12.10;;;;;;;-3.61;66.28;102025.23;107495;1251;108183;-65
2024/01/23 06:39:19;;;;;;;20.10;12.90;;;;;;;-3.50;66.57;102023.73;107549;1251;108483;-64
2024/01/23 06:41:49;;;;;;;18.20;11.70;;;;;;;-3.43;66.14;102029.27;107517;1251;97841;-64
2024/01/23 06:44:18;;;;;;;18.60;10.60;;;;;;;-3.29;66.50;102024.92;107461;1251;98386;-64
2024/01/23 06:46:46;;;;;;;20.30;11.30;;;;;;;-3.12;66.42;102021.74;107495;1251;111962;-66
2024/01/23 06:49:15;;;;;;;20.70;11.80;;;;;;;-2.97;66.14;102018.42;107541;1251;108090;-64
2024/01/23 06:51:45;;;;;;;20.00;11.80;;;;;;;-2.79;66.14;102015.73;107484;1251;108634;-65
2024/01/23 06:54:13;;;;;;;24.00;12.70;;;;;;;-2.62;65.88;102012.19;107460;1251;97874;-65
2024/01/23 06:56:42;;;;;;;20.30;11.80;;;;;;;-2.47;65.62;102012.50;107511;1251;98332;-65
2024/01/23 06:59:10;;;;;;;19.60;10.50;;;;;;;-2.36;65.15;102016.56;107478;1250;111555;-65
2024/01/23 07:01:39;;;;;;;18.80;11.50;;;;;;;-2.21;65.31;102023.02;107466;1251;108634;-64
2024/01/23 07:04:07;;;;;;;21.30;10.50;;;;;;;-2.05;65.23;102023.84;107487;1251;106942;-63
2024/01/23 07:06:36;;;;;;;18.70;10.70;;;;;;;-1.96;64.78;102018.06;107500;1251;97828;-65
2024/01/23 07:09:05;;;;;;;16.70;9.30;;;;;;;-1.85;64.25;102021.23;107534;1251;98370;-65
2024/01/23 07:11:34;;;;;;;18.00;10.30;;;;;;;-1.75;64.14;102022.11;107548;1251;110391;-64
2024/01/23 07:14:02;;;;;;;19.40;10.60;;;;;;;-1.65;64.41;102022.30;107492;1250;109381;-65
2024/01/23 07:16:30;;;;;;;16.70;10.70;;;;;;;-1.57;63.69;102007.02;107450;1251;107922;-66
2024/01/23 07:18:59;;;;;;;19.80;10.90;;;;;;;-1.59;63.38;102009.52;107494;1251;97851;-66
2024/01/23 07:21:27;;;;;;;21.70;11.80;;;;;;;-1.60;63.12;102013.59;107615;1251;98417;-65
2024/01/23 07:23:56;;;;;;;24.00;11.90;;;;;;;-1.61;62.94;102015.73;107520;1251;113348;-64
2024/01/23 07:26:24;;;;;;;21.60;10.60;;;;;;;-1.59;62.67;102019.72;107548;1251;108318;-64
2024/01/23 07:28:52;;;;;;;21.30;12.20;;;;;;;-1.59;62.51;102017.45;107565;1250;108284;-66
2024/01/23 07:31:29;;;;;;;22.20;11.60;;;;;;;-1.53;62.62;102020.87;107543;1250;97844;-65
2024/01/23 07:33:58;;;;;;;20.00;11.40;;;;;;;-1.41;62.81;102020.98;107574;1250;99514;-65
2024/01/23 07:36:27;;;;;;;25.30;12.60;;;;;;;-1.26;62.53;102018.77;107495;1253;111876;-67
2024/01/23 07:38:55;;;;;;;24.40;12.90;;;;;;;-1.11;62.49;102020.09;107547;1251;108769;-64
2024/01/23 07:41:24;;;;;;;26.60;13.00;;;;;;;-0.98;62.24;102019.99;107467;1251;108574;-64
2024/01/23 07:43:52;;;;;;;26.50;12.60;;;;;;;-0.91;61.67;102015.45;107647;1253;97839;-65
2024/01/23 07:46:22;;;;;;;23.20;11.80;;;;;;;-0.88;61.67;102010.83;107567;1251;98344;-64
2024/01/23 07:48:51;;;;;;;21.00;11.30;;;;;;;-0.88;61.16;102016.98;107580;1250;112271;-64
2024/01/23 07:51:20;;;;;;;22.60;11.70;;;;;;;-0.80;61.47;102010.80;107515;1250;108604;-65
2024/01/23 07:53:50;;;;;;;23.10;13.40;;;;;;;-0.71;61.38;102012.05;107550;1251;108032;-64
2024/01/23 07:56:19;;;;;;;23.20;12.80;;;;;;;-0.61;61.50;102007.79;107589;1250;97825;-64
2024/01/23 07:58:48;;;;;;;24.50;13.40;;;;;;;-0.55;61.13;102010.10;107559;1251;98379;-65
2024/01/23 08:01:17;;;;;;;25.10;14.00;;;;;;;-0.48;61.42;102009.93;107598;1254;111763;-65
2024/01/23 08:03:45;;;;;;;22.80;11.10;;;;;;;-0.47;60.63;102005.70;107661;1251;106598;-64
2024/01/23 08:06:14;;;;;;;18.90;11.80;;;;;;;-0.47;60.59;102011.15;107562;1251;108097;-65
2024/01/23 08:08:44;;;;;;;26.90;12.40;;;;;;;-0.40;61.06;102009.05;107590;1251;97896;-65
2024/01/23 08:11:12;;;;;;;18.70;11.10;;;;;;;-0.39;60.51;102011.86;107626;1250;97832;-65
2024/01/23 08:13:41;;;;;;;22.10;12.10;;;;;;;-0.37;60.52;102011.99;107644;1251;112968;-65
2024/01/23 08:16:10;;;;;;;23.10;11.70;;;;;;;-0.26;60.72;102009.10;107585;1251;108029;-66
2024/01/23 08:18:39;;;;;;;22.90;12.50;;;;;;;-0.13;60.73;102008.27;107612;1251;108175;-65
2024/01/23 08:21:09;;;;;;;25.30;13.10;;;;;;;-0.03;60.23;102006.27;107603;1251;97822;-65
2024/01/23 08:23:38;;;;;;;23.00;11.50;;;;;;;0.04;59.93;102005.94;107665;1251;97727;-65
2024/01/23 08:26:06;;;;;;;22.50;12.30;;;;;;;0.11;59.68;102005.93;107614;1251;111872;-66
2024/01/23 08:28:49;;;;;;;20.90;10.60;;;;;;;0.18;59.83;102000.45;107590;1251;108675;-65
2024/01/23 08:31:17;;;;;;;19.70;10.40;;;;;;;0.20;59.28;101997.05;107607;1250;107897;-65
2024/01/23 08:33:46;;;;;;;21.70;11.90;;;;;;;0.19;59.01;101997.08;107593;1251;97828;-66
2024/01/23 08:36:15;;;;;;;19.20;11.10;;;;;;;0.24;59.07;101994.30;107615;1251;97723;-65
2024/01/23 08:38:43;;;;;;;15.30;9.30;;;;;;;0.29;59.34;101995.25;107620;1250;112147;-65
2024/01/23 08:41:11;;;;;;;30.50;11.50;;;;;;;0.38;59.29;101999.42;107606;1250;106284;-65
2024/01/23 08:43:40;;;;;;;20.90;11.30;;;;;;;0.40;58.93;101994.41;107581;1254;108200;-66
2024/01/23 08:46:08;;;;;;;19.20;11.50;;;;;;;0.42;59.07;101990.84;107056;1251;756198;-65
2024/01/23 08:48:36;;;;;;;17.80;10.30;;;;;;;0.52;58.95;101988.28;107638;1251;98347;-64
2024/01/23 08:51:05;;;;;;;20.90;11.10;;;;;;;0.57;58.82;101983.74;107639;1251;112014;-65
2024/01/23 08:53:33;;;;;;;17.20;10.30;;;;;;;0.56;58.98;101982.72;107589;1251;108332;-66
2024/01/23 08:56:02;;;;;;;23.70;12.00;;;;;;;0.66;58.64;101982.44;107595;1251;108482;-65
2024/01/23 08:58:31;;;;;;;23.20;12.40;;;;;;;0.77;58.41;101972.77;107593;1250;97837;-65
2024/01/23 09:00:59;;;;;;;19.50;11.30;;;;;;;0.85;58.26;101970.42;107627;1251;97841;-65
2024/01/23 09:03:27;;;;;;;19.50;11.50;;;;;;;1.00;58.35;101964.69;107650;1251;110949;-65
2024/01/23 09:05:56;;;;;;;23.50;11.20;;;;;;;1.09;57.80;101961.96;107587;1254;107465;-65
2024/01/23 09:08:24;;;;;;;23.40;11.30;;;;;;;1.20;57.97;101960.05;107630;1251;108223;-65
2024/01/23 09:10:53;;;;;;;23.90;12.20;;;;;;;1.38;57.79;101958.78;107600;1251;97858;-65
2024/01/23 09:13:21;;;;;;;19.80;11.30;;;;;;;1.43;57.29;101955.29;107581;1251;97732;-65
2024/01/23 09:15:50;;;;;;;23.60;12.70;;;;;;;1.47;57.73;101950.37;107632;1251;111805;-64
2024/01/23 09:18:18;;;;;;;25.20;13.40;;;;;;;1.60;58.02;101950.33;107649;1251;108061;-66
2024/01/23 09:20:47;;;;;;;20.70;12.10;;;;;;;1.71;57.89;101945.04;107576;1251;107027;-66
2024/01/23 09:23:15;;;;;;;19.30;11.70;;;;;;;1.79;57.18;101940.70;107533;1251;97812;-65
2024/01/23 09:25:43;;;;;;;22.40;11.60;;;;;;;1.86;57.26;101944.86;107569;1251;97845;-64
2024/01/23 09:28:12;;;;;;;21.50;12.20;;;;;;;1.98;57.56;101940.95;107527;1251;111223;-64
2024/01/23 09:30:40;;;;;;;19.70;12.70;;;;;;;2.13;57.70;101930.70;107532;1251;108365;-64
2024/01/23 09:33:08;;;;;;;26.40;12.70;;;;;;;2.32;57.82;101931.10;107551;1251;106610;-65
2024/01/23 09:35:37;;;;;;;21.10;12.90;;;;;;;2.51;57.65;101927.08;107510;1251;97826;-66
2024/01/23 09:38:05;;;;;;;22.20;13.00;;;;;;;2.65;57.47;101915.42;107537;1251;98391;-67
2024/01/23 09:40:34;;;;;;;22.90;11.30;;;;;;;2.75;57.00;101913.12;107602;1251;110543;-65
2024/01/23 09:43:03;;;;;;;22.00;12.00;;;;;;;2.85;56.16;101910.96;107570;1251;108413;-66
2024/01/23 09:45:37;;;;;;;51.30;28.30;;;;;;;2.99;56.78;101905.83;107533;1251;107051;-65
2024/01/23 09:48:06;;;;;;;37.90;14.80;;;;;;;3.25;56.97;101904.29;107536;1251;97837;-65
2024/01/23 09:50:39;;;;;;;26.80;12.00;;;;;;;3.45;57.15;101900.63;107594;1250;97845;-65
2024/01/23 09:53:07;;;;;;;27.40;12.90;;;;;;;3.65;56.62;101903.39;107501;1251;111343;-66
2024/01/23 09:55:35;;;;;;;25.10;12.10;;;;;;;3.75;55.34;101903.14;107508;1251;109193;-66
2024/01/23 09:58:04;;;;;;;24.90;13.50;;;;;;;3.73;55.03;101903.03;107530;1251;108889;-66
2024/01/23 10:00:33;;;;;;;23.30;14.00;;;;;;;3.74;55.08;101906.02;107514;1251;97854;-66
2024/01/23 10:03:07;;;;;;;23.40;15.20;;;;;;;3.80;55.14;101903.85;107591;1251;97826;-65
2024/01/23 10:05:36;;;;;;;24.30;14.10;;;;;;;3.83;55.10;101901.40;107531;1254;111150;-66
2024/01/23 10:08:07;;;;;;;25.60;15.30;;;;;;;3.91;55.55;101896.27;107576;1250;107800;-66
2024/01/23 10:10:36;;;;;;;22.50;13.70;;;;;;;4.02;55.61;101888.91;107592;1250;107281;-66
2024/01/23 10:13:04;;;;;;;20.20;13.50;;;;;;;4.11;55.33;101882.83;107553;1251;97866;-68
2024/01/23 10:15:32;;;;;;;22.10;12.10;;;;;;;4.22;55.51;101878.27;107593;1251;97837;-65
2024/01/23 10:18:05;;;;;;;18.80;11.60;;;;;;;4.32;55.42;101873.36;107531;1251;111903;-66
2024/01/23 10:20:39;;;;;;;26.30;14.90;;;;;;;4.43;55.45;101874.32;107632;1253;108580;-66
2024/01/23 10:23:07;;;;;;;25.70;14.50;;;;;;;4.55;55.26;101869.16;107638;1251;108697;-65
2024/01/23 10:25:38;;;;;;;18.20;10.60;;;;;;;4.61;55.10;101867.65;107553;1251;97973;-65
2024/01/23 10:28:10;;;;;;;18.80;11.10;;;;;;;4.67;54.37;101867.36;107623;1251;97838;-65
2024/01/23 10:30:43;;;;;;;13.30;7.80;;;;;;;4.70;53.38;101864.19;107643;1251;111372;-66
2024/01/23 10:33:12;;;;;;;18.20;10.80;;;;;;;4.67;52.61;101861.50;107554;1251;105988;-66
2024/01/23 10:35:42;;;;;;;17.90;11.40;;;;;;;4.52;53.22;101852.57;107544;1251;106842;-65
2024/01/23 10:38:16;;;;;;;15.70;9.70;;;;;;;4.45;53.21;101846.17;107591;1251;97854;-66
2024/01/23 10:40:46;;;;;;;18.20;10.40;;;;;;;4.38;53.51;101846.09;107542;1251;97736;-65
2024/01/23 10:43:16;;;;;;;17.00;10.00;;;;;;;4.35;53.99;101844.80;107619;1254;111927;-66
2024/01/23 10:45:47;;;;;;;15.90;8.50;;;;;;;4.39;53.27;101838.23;107653;1251;106719;-66
2024/01/23 10:48:15;;;;;;;13.70;7.90;;;;;;;4.40;52.38;101830.55;107571;1254;106562;-67
2024/01/23 10:50:48;;;;;;;17.50;7.80;;;;;;;4.34;52.09;101826.20;107536;1251;98508;-67
2024/01/23 10:53:18;;;;;;;20.00;8.90;;;;;;;4.28;52.22;101827.36;107627;1254;97758;-65
2024/01/23 10:55:48;;;;;;;17.60;8.20;;;;;;;4.23;52.17;101825.84;107627;1251;111583;-65
2024/01/23 10:58:30;;;;;;;11.40;7.80;;;;;;;4.19;52.38;101821.23;107589;1251;108362;-65
2024/01/23 11:01:00;;;;;;;14.70;8.10;;;;;;;4.17;52.57;101817.23;107553;1251;108296;-64
2024/01/23 11:03:33;;;;;;;13.70;8.40;;;;;;;4.14;52.57;101816.13;107523;1251;98469;-64
2024/01/23 11:06:15;;;;;;;14.70;8.00;;;;;;;4.07;52.50;101815.34;107504;1253;97916;-66
2024/01/23 11:08:50;;;;;;;11.50;7.50;;;;;;;4.00;52.45;101813.17;107628;1251;111836;-65
2024/01/23 11:11:49;;;;;;;13.60;7.90;;;;;;;3.92;52.93;101808.54;107608;1251;108631;-66